Time;durP1;ratioP1;P1;durP2;ratioP2;P2;SDS_P1;SDS_P2;PMS_P1;PMS_P2;Temp;Humidity;BMP_temperature;BMP_pressure;BME280_temperature;BME280_humidity;BME280_pressure;Samples;Min_cycle;Max_cycle;Signal;HPM_P1;HPM_P2
2021/03/28 00:00:55;;;;;;;;;;;;;;;;;;5047706;28;1902;-61
2021/03/28 00:03:41;;;;;;;;;;;;;;;;;;5047221;28;847;-62
2021/03/28 00:06:21;;;;;;;;;;;;;;;;;;5047796;28;807;-62
2021/03/28 00:09:01;;;;;;;;;;;;;;;;;;5047090;28;954;-63
2021/03/28 00:11:27;;;;;;;;;;;;;;;;;;5047012;28;831;-62
2021/03/28 00:13:54;;;;;;;;;;;;;;;;;;5047371;28;867;-62
2021/03/28 00:16:21;;;;;;;;;;;;;;;;;;5046992;28;836;-62
2021/03/28 00:19:08;;;;;;;;;;;;;;;;;;5047544;28;815;-63
2021/03/28 00:21:44;;;;;;;;;;;;;;;;;;5050147;28;1961;-62
2021/03/28 00:24:13;;;;;;;;;;;;;;;;;;5047255;28;819;-62
2021/03/28 00:26:41;;;;;;;;;;;;;;;;;;5046807;28;878;-62
2021/03/28 00:29:12;;;;;;;;;;;;;;;;;;5046937;28;897;-62
2021/03/28 00:31:58;;;;;;;;;;;;;;;;;;5046968;28;859;-62
2021/03/28 00:34:31;;;;;;;;;;;;;;;;;;5046026;28;1042;-63
2021/03/28 00:37:22;;;;;;;;;;;;;;;;;;5046969;28;1022;-62
2021/03/28 00:39:51;;;;;;;;;;;;;;;;;;5043963;28;1977;-63
2021/03/28 00:42:19;;;;;;;;;;;;;;;;;;5047424;28;906;-62
2021/03/28 00:45:10;;;;;;;;;;;;;;;;;;5047286;28;911;-62
2021/03/28 00:47:36;;;;;;;;;;;;;;;;;;5047667;28;903;-62
2021/03/28 00:50:08;;;;;;;;;;;;;;;;;;5047104;28;842;-62
2021/03/28 00:52:35;;;;;;;;;;;;;;;;;;5046425;28;835;-62
2021/03/28 00:55:20;;;;;;;;;;;;;;;;;;5066454;28;1184;-62
2021/03/28 00:57:56;;;;;;;;;;;;;;;;;;5067409;28;1041;-62
2021/03/28 01:00:40;;;;;;;;;;;;;;;;;;5066799;28;1985;-62
2021/03/28 01:03:10;;;;;;;;;;;;;;;;;;5067478;28;800;-62
2021/03/28 01:05:46;;;;;;;;;;;;;;;;;;5066907;28;874;-62
2021/03/28 01:08:22;;;;;;;;;;;;;;;;;;5066996;28;843;-61
2021/03/28 01:11:03;;;;;;;;;;;;;;;;;;5066949;28;859;-63
2021/03/28 01:13:53;;;;;;;;;;;;;;;;;;5067082;28;854;-62
2021/03/28 01:16:18;;;;;;;;;;;;;;;;;;5054468;28;1788;-63
2021/03/28 01:18:46;;;;;;;;;;;;;;;;;;5051079;28;858;-62
2021/03/28 01:21:26;;;;;;;;;;;;;;;;;;5052000;28;1953;-62
2021/03/28 01:24:10;;;;;;;;;;;;;;;;;;5050760;28;692;-62
2021/03/28 01:27:04;;;;;;;;;;;;;;;;;;5050574;28;831;-62
2021/03/28 01:29:36;;;;;;;;;;;;;;;;;;5050826;28;923;-62
2021/03/28 01:32:04;;;;;;;;;;;;;;;;;;5050425;28;981;-63
2021/03/28 01:34:42;;;;;;;;;;;;;;;;;;5050442;28;878;-62
2021/03/28 01:37:13;;;;;;;;;;;;;;;;;;5050784;28;839;-62
2021/03/28 01:39:42;;;;;;;;;;;;;;;;;;5050160;28;1886;-61
2021/03/28 01:42:18;;;;;;;;;;;;;;;;;;5050209;28;866;-62
2021/03/28 01:44:52;;;;;;;;;;;;;;;;;;5051056;28;902;-62
2021/03/28 01:47:37;;;;;;;;;;;;;;;;;;5050523;28;940;-63
2021/03/28 01:50:06;;;;;;;;;;;;;;;;;;5042353;28;1616;-62
2021/03/28 01:52:39;;;;;;;;;;;;;;;;;;5050276;28;839;-62
2021/03/28 01:55:24;;;;;;;;;;;;;;;;;;5030994;28;1088;-62
2021/03/28 01:57:58;;;;;;;;;;;;;;;;;;5028927;28;1413;-63
2021/03/28 02:00:29;;;;;;;;;;;;;;;;;;5030196;28;1989;-62
2021/03/28 02:03:00;;;;;;;;;;;;;;;;;;5030513;28;851;-62
2021/03/28 02:05:41;;;;;;;;;;;;;;;;;;5030114;28;839;-62
2021/03/28 02:08:15;;;;;;;;;;;;;;;;;;5030098;28;827;-62
2021/03/28 02:10:55;;;;;;;;;;;;;;;;;;5030141;28;1087;-61
2021/03/28 02:13:39;;;;;;;;;;;;;;;;;;5029899;28;1873;-62
2021/03/28 02:16:24;;;;;;;;;;;;;;;;;;5029798;28;820;-62
2021/03/28 02:18:54;;;;;;;;;;;;;;;;;;5030049;28;812;-62
2021/03/28 02:21:42;;;;;;;;;;;;;;;;;;5050739;28;1979;-62
2021/03/28 02:24:07;;;;;;;;;;;;;;;;;;5050093;28;887;-62
2021/03/28 02:26:36;;;;;;;;;;;;;;;;;;5048497;28;915;-62
2021/03/28 02:29:11;;;;;;;;;;;;;;;;;;5048885;28;906;-62
2021/03/28 02:31:47;;;;;;;;;;;;;;;;;;5049328;28;827;-62
2021/03/28 02:34:25;;;;;;;;;;;;;;;;;;5050281;28;649;-62
2021/03/28 02:36:56;;;;;;;;;;;;;;;;;;5048907;28;788;-62
2021/03/28 02:39:25;;;;;;;;;;;;;;;;;;5048883;28;2142;-62
2021/03/28 02:42:20;;;;;;;;;;;;;;;;;;5049343;28;894;-62
2021/03/28 02:44:51;;;;;;;;;;;;;;;;;;5036578;28;1541;-62
2021/03/28 02:47:37;;;;;;;;;;;;;;;;;;5049713;28;846;-63
2021/03/28 02:50:12;;;;;;;;;;;;;;;;;;5049423;28;831;-62
2021/03/28 02:52:52;;;;;;;;;;;;;;;;;;5048999;28;895;-61
2021/03/28 02:55:36;;;;;;;;;;;;;;;;;;5029115;28;835;-62
2021/03/28 02:58:08;;;;;;;;;;;;;;;;;;5029562;28;930;-62
2021/03/28 03:00:56;;;;;;;;;;;;;;;;;;5029114;28;1997;-62
2021/03/28 03:03:36;;;;;;;;;;;;;;;;;;5029032;28;835;-62
2021/03/28 03:06:08;;;;;;;;;;;;;;;;;;5029520;28;823;-61
2021/03/28 03:08:37;;;;;;;;;;;;;;;;;;5028988;28;841;-62
2021/03/28 03:11:22;;;;;;;;;;;;;;;;;;5029165;28;815;-62
2021/03/28 03:14:06;;;;;;;;;;;;;;;;;;5024677;28;1239;-62
2021/03/28 03:16:47;;;;;;;;;;;;;;;;;;5028788;28;816;-62
2021/03/28 03:19:15;;;;;;;;;;;;;;;;;;5029317;28;835;-62
2021/03/28 03:21:48;;;;;;;;;;;;;;;;;;5028532;28;1981;-62
2021/03/28 03:24:19;;;;;;;;;;;;;;;;;;5029621;28;823;-62
2021/03/28 03:26:48;;;;;;;;;;;;;;;;;;5028843;28;816;-62
2021/03/28 03:29:25;;;;;;;;;;;;;;;;;;5028953;28;1024;-61
2021/03/28 03:32:02;;;;;;;;;;;;;;;;;;5028415;28;827;-62
2021/03/28 03:34:33;;;;;;;;;;;;;;;;;;5027864;28;827;-61
2021/03/28 03:37:07;;;;;;;;;;;;;;;;;;5027669;28;819;-62
2021/03/28 03:39:51;;;;;;;;;;;;;;;;;;5027035;28;1959;-62
2021/03/28 03:42:20;;;;;;;;;;;;;;;;;;5028621;28;847;-62
2021/03/28 03:44:54;;;;;;;;;;;;;;;;;;5028732;28;927;-62
2021/03/28 03:47:34;;;;;;;;;;;;;;;;;;5028303;28;855;-62
2021/03/28 03:50:12;;;;;;;;;;;;;;;;;;5028134;28;844;-62
2021/03/28 03:52:44;;;;;;;;;;;;;;;;;;5026558;28;840;-61
2021/03/28 03:55:09;;;;;;;;;;;;;;;;;;5027907;28;915;-62
2021/03/28 03:57:38;;;;;;;;;;;;;;;;;;5028413;28;882;-62
2021/03/28 04:00:07;;;;;;;;;;;;;;;;;;5027918;28;2072;-62
2021/03/28 04:02:51;;;;;;;;;;;;;;;;;;5027873;28;863;-62
2021/03/28 04:05:16;;;;;;;;;;;;;;;;;;5028910;28;824;-62
2021/03/28 04:07:50;;;;;;;;;;;;;;;;;;5027511;28;1164;-62
2021/03/28 04:10:34;;;;;;;;;;;;;;;;;;5028108;28;803;-62
2021/03/28 04:13:10;;;;;;;;;;;;;;;;;;5046042;28;1023;-62
2021/03/28 04:15:44;;;;;;;;;;;;;;;;;;5047157;28;930;-62
2021/03/28 04:18:09;;;;;;;;;;;;;;;;;;5047139;28;812;-62
2021/03/28 04:20:45;;;;;;;;;;;;;;;;;;5047179;28;1975;-62
2021/03/28 04:23:14;;;;;;;;;;;;;;;;;;5046723;28;949;-62
2021/03/28 04:25:50;;;;;;;;;;;;;;;;;;5047282;28;974;-62
2021/03/28 04:28:30;;;;;;;;;;;;;;;;;;5048311;28;815;-62
2021/03/28 04:30:55;;;;;;;;;;;;;;;;;;5047913;28;839;-62
2021/03/28 04:33:32;;;;;;;;;;;;;;;;;;5047331;28;906;-62
2021/03/28 04:36:04;;;;;;;;;;;;;;;;;;5046998;28;859;-62
2021/03/28 04:38:48;;;;;;;;;;;;;;;;;;5047234;28;883;-62
2021/03/28 04:41:28;;;;;;;;;;;;;;;;;;5047626;28;1976;-62
2021/03/28 04:43:54;;;;;;;;;;;;;;;;;;5046749;28;890;-62
2021/03/28 04:46:19;;;;;;;;;;;;;;;;;;5047669;28;848;-62
2021/03/28 04:49:03;;;;;;;;;;;;;;;;;;5048071;28;878;-62
2021/03/28 04:51:48;;;;;;;;;;;;;;;;;;5046562;28;894;-62
2021/03/28 04:54:40;;;;;;;;;;;;;;;;;;5060878;28;1228;-62
2021/03/28 04:57:18;;;;;;;;;;;;;;;;;;5058220;28;1072;-62
2021/03/28 04:59:55;;;;;;;;;;;;;;;;;;5067840;28;1894;-62
2021/03/28 05:02:49;;;;;;;;;;;;;;;;;;5066718;28;906;-62
2021/03/28 05:05:29;;;;;;;;;;;;;;;;;;5067837;28;835;-61
2021/03/28 05:08:13;;;;;;;;;;;;;;;;;;5067034;28;926;-62
2021/03/28 05:10:57;;;;;;;;;;;;;;;;;;5067031;28;822;-62
2021/03/28 05:13:22;;;;;;;;;;;;;;;;;;5067010;28;973;-62
2021/03/28 05:16:06;;;;;;;;;;;;;;;;;;5065141;28;1162;-63
2021/03/28 05:19:10;;;;;;;;;;;;;;;;;;5045545;28;907;-61
2021/03/28 05:21:54;;;;;;;;;;;;;;;;;;5004670;28;1968;-61
2021/03/28 05:24:38;;;;;;;;;;;;;;;;;;5004339;28;872;-61
2021/03/28 05:27:22;;;;;;;;;;;;;;;;;;5034629;28;1005;-61
2021/03/28 05:29:59;;;;;;;;;;;;;;;;;;5047588;28;855;-61
2021/03/28 05:32:43;;;;;;;;;;;;;;;;;;5046576;28;823;-61
2021/03/28 05:35:23;;;;;;;;;;;;;;;;;;5047041;28;875;-61
2021/03/28 05:38:07;;;;;;;;;;;;;;;;;;5047167;28;891;-61
2021/03/28 05:40:56;;;;;;;;;;;;;;;;;;5046653;28;1890;-61
2021/03/28 05:43:30;;;;;;;;;;;;;;;;;;5026818;28;1247;-61
2021/03/28 05:45:55;;;;;;;;;;;;;;;;;;5046843;28;918;-60
2021/03/28 05:48:39;;;;;;;;;;;;;;;;;;5046205;28;1264;-61
2021/03/28 05:51:28;;;;;;;;;;;;;;;;;;5046436;28;843;-61
2021/03/28 05:54:12;;;;;;;;;;;;;;;;;;5051072;28;1115;-61
2021/03/28 05:56:47;;;;;;;;;;;;;;;;;;5066247;28;913;-61
2021/03/28 05:59:18;;;;;;;;;;;;;;;;;;5066541;28;811;-62
2021/03/28 06:01:47;;;;;;;;;;;;;;;;;;5056481;28;1967;-61
2021/03/28 06:04:31;;;;;;;;;;;;;;;;;;5050296;28;883;-62
2021/03/28 06:06:56;;;;;;;;;;;;;;;;;;5049680;28;832;-61
2021/03/28 06:09:24;;;;;;;;;;;;;;;;;;5049916;28;906;-61
2021/03/28 06:12:09;;;;;;;;;;;;;;;;;;5049809;28;835;-61
2021/03/28 06:14:57;;;;;;;;;;;;;;;;;;5049778;28;858;-61
2021/03/28 06:17:47;;;;;;;;;;;;;;;;;;5051423;28;1252;-61
2021/03/28 06:20:12;;;;;;;;;;;;;;;;;;5050464;28;1906;-62
2021/03/28 06:22:41;;;;;;;;;;;;;;;;;;5049754;28;882;-61
2021/03/28 06:25:13;;;;;;;;;;;;;;;;;;5049561;28;867;-62
2021/03/28 06:27:38;;;;;;;;;;;;;;;;;;5049827;28;954;-62
2021/03/28 06:30:10;;;;;;;;;;;;;;;;;;5049164;28;815;-62
2021/03/28 06:32:50;;;;;;;;;;;;;;;;;;5049182;28;824;-62
2021/03/28 06:35:25;;;;;;;;;;;;;;;;;;5050304;28;898;-62
2021/03/28 06:37:54;;;;;;;;;;;;;;;;;;5048972;28;910;-62
2021/03/28 06:40:26;;;;;;;;;;;;;;;;;;5051365;28;1984;-61
2021/03/28 06:43:06;;;;;;;;;;;;;;;;;;5050322;28;1173;-61
2021/03/28 06:45:50;;;;;;;;;;;;;;;;;;5049789;28;1181;-62
2021/03/28 06:48:31;;;;;;;;;;;;;;;;;;5050809;28;1165;-61
2021/03/28 06:51:23;;;;;;;;;;;;;;;;;;5042769;28;1454;-62
2021/03/28 06:54:21;;;;;;;;;;;;;;;;;;5048670;28;988;-62
2021/03/28 06:56:49;;;;;;;;;;;;;;;;;;5055329;28;1314;-62
2021/03/28 06:59:34;;;;;;;;;;;;;;;;;;5067689;28;843;-62
2021/03/28 07:02:18;;;;;;;;;;;;;;;;;;5050982;28;1280;-61
2021/03/28 07:04:55;;;;;;;;;;;;;;;;;;5067859;28;1203;-61
2021/03/28 07:07:45;;;;;;;;;;;;;;;;;;5068434;28;822;-61
2021/03/28 07:10:23;;;;;;;;;;;;;;;;;;5068397;28;803;-60
2021/03/28 07:13:07;;;;;;;;;;;;;;;;;;5063179;28;1238;-61
2021/03/28 07:15:50;;;;;;;;;;;;;;;;;;5056982;28;1095;-61
2021/03/28 07:18:16;;;;;;;;;;;;;;;;;;5064590;28;1159;-61
2021/03/28 07:21:00;;;;;;;;;;;;;;;;;;5062996;28;2021;-61
2021/03/28 07:23:49;;;;;;;;;;;;;;;;;;5060569;28;1172;-61
2021/03/28 07:26:20;;;;;;;;;;;;;;;;;;5065448;28;1155;-61
2021/03/28 07:29:11;;;;;;;;;;;;;;;;;;5061894;28;1080;-61
2021/03/28 07:31:55;;;;;;;;;;;;;;;;;;5066310;28;826;-61
2021/03/28 07:34:29;;;;;;;;;;;;;;;;;;5068186;28;827;-61
2021/03/28 07:37:09;;;;;;;;;;;;;;;;;;5067991;28;819;-61
2021/03/28 07:39:53;;;;;;;;;;;;;;;;;;5068337;28;1985;-61
2021/03/28 07:42:21;;;;;;;;;;;;;;;;;;5068417;28;1154;-61
2021/03/28 07:44:59;;;;;;;;;;;;;;;;;;5060831;28;1130;-60
2021/03/28 07:47:56;;;;;;;;;;;;;;;;;;5028372;28;880;-61
2021/03/28 07:50:33;;;;;;;;;;;;;;;;;;5008290;28;1353;-61
2021/03/28 07:53:18;;;;;;;;;;;;;;;;;;5050374;28;1024;-61
2021/03/28 07:56:02;;;;;;;;;;;;;;;;;;5067883;28;922;-63
2021/03/28 07:58:46;;;;;;;;;;;;;;;;;;5067545;28;918;-63
2021/03/28 08:01:29;;;;;;;;;;;;;;;;;;5067923;28;1898;-61
2021/03/28 08:03:56;;;;;;;;;;;;;;;;;;5067425;28;882;-62
2021/03/28 08:06:35;;;;;;;;;;;;;;;;;;5062986;28;1162;-62
2021/03/28 08:09:14;;;;;;;;;;;;;;;;;;5047937;28;962;-62
2021/03/28 08:11:55;;;;;;;;;;;;;;;;;;5046027;28;1384;-62
2021/03/28 08:14:23;;;;;;;;;;;;;;;;;;5047165;28;832;-62
2021/03/28 08:17:12;;;;;;;;;;;;;;;;;;5046488;28;882;-62
2021/03/28 08:19:55;;;;;;;;;;;;;;;;;;5048738;28;1972;-63
2021/03/28 08:22:26;;;;;;;;;;;;;;;;;;5046908;28;839;-63
2021/03/28 08:25:10;;;;;;;;;;;;;;;;;;5046334;28;863;-63
2021/03/28 08:28:04;;;;;;;;;;;;;;;;;;5043595;28;1580;-61
2021/03/28 08:30:45;;;;;;;;;;;;;;;;;;5037746;28;1334;-62
2021/03/28 08:33:20;;;;;;;;;;;;;;;;;;5046760;28;866;-62
2021/03/28 08:36:06;;;;;;;;;;;;;;;;;;5047960;28;808;-62
2021/03/28 08:38:47;;;;;;;;;;;;;;;;;;5046635;28;906;-62
2021/03/28 08:41:31;;;;;;;;;;;;;;;;;;5048136;28;1910;-62
2021/03/28 08:44:15;;;;;;;;;;;;;;;;;;5046737;28;874;-63
2021/03/28 08:47:00;;;;;;;;;;;;;;;;;;5047452;28;850;-62
2021/03/28 08:49:25;;;;;;;;;;;;;;;;;;5047746;28;823;-62
2021/03/28 08:51:51;;;;;;;;;;;;;;;;;;5046374;28;1453;-63
2021/03/28 08:54:31;;;;;;;;;;;;;;;;;;5059596;28;1130;-63
2021/03/28 08:57:15;;;;;;;;;;;;;;;;;;5028653;28;1176;-62
2021/03/28 08:59:59;;;;;;;;;;;;;;;;;;5025695;28;2298;-62
2021/03/28 09:02:43;;;;;;;;;;;;;;;;;;5026835;28;1109;-63
2021/03/28 09:05:27;;;;;;;;;;;;;;;;;;5028269;28;875;-70
2021/03/28 09:07:55;;;;;;;;;;;;;;;;;;5029600;28;902;-62
2021/03/28 09:10:21;;;;;;;;;;;;;;;;;;5037032;28;1274;-63
2021/03/28 09:12:50;;;;;;;;;;;;;;;;;;5050517;28;1133;-63
2021/03/28 09:15:43;;;;;;;;;;;;;;;;;;5054296;28;1167;-63
2021/03/28 09:18:18;;;;;;;;;;;;;;;;;;5050446;28;2021;-64
2021/03/28 09:20:49;;;;;;;;;;;;;;;;;;5044345;28;1893;-63
2021/03/28 09:23:23;;;;;;;;;;;;;;;;;;5049396;28;1016;-63
2021/03/28 09:25:52;;;;;;;;;;;;;;;;;;5046752;28;835;-63
2021/03/28 09:28:35;;;;;;;;;;;;;;;;;;5047442;28;823;-63
2021/03/28 09:31:18;;;;;;;;;;;;;;;;;;5046887;28;831;-62
2021/03/28 09:33:44;;;;;;;;;;;;;;;;;;5047691;28;859;-63
2021/03/28 09:36:10;;;;;;;;;;;;;;;;;;5044391;28;2160;-63
2021/03/28 09:38:54;;;;;;;;;;;;;;;;;;5041659;28;803;-62
2021/03/28 09:41:22;;;;;;;;;;;;;;;;;;5050423;28;1965;-63
2021/03/28 09:44:03;;;;;;;;;;;;;;;;;;5050567;28;954;-63
2021/03/28 09:46:28;;;;;;;;;;;;;;;;;;5050172;28;905;-63
2021/03/28 09:49:17;;;;;;;;;;;;;;;;;;5050542;28;831;-63
2021/03/28 09:51:46;;;;;;;;;;;;;;;;;;5049864;28;910;-63
2021/03/28 09:54:11;;;;;;;;;;;;;;;;;;5062880;28;1035;-63
2021/03/28 09:56:40;;;;;;;;;;;;;;;;;;5069523;28;902;-63
2021/03/28 09:59:24;;;;;;;;;;;;;;;;;;5069365;28;1162;-62
2021/03/28 10:01:58;;;;;;;;;;;;;;;;;;5055907;28;1968;-63
2021/03/28 10:04:26;;;;;;;;;;;;;;;;;;5050187;28;1202;-62
2021/03/28 10:07:00;;;;;;;;;;;;;;;;;;5043212;28;929;-62
2021/03/28 10:09:38;;;;;;;;;;;;;;;;;;5029948;28;821;-65
2021/03/28 10:12:22;;;;;;;;;;;;;;;;;;5039883;28;1230;-63
2021/03/28 10:15:01;;;;;;;;;;;;;;;;;;5049559;28;1366;-63
2021/03/28 10:17:38;;;;;;;;;;;;;;;;;;5042046;28;1158;-63
2021/03/28 10:20:09;;;;;;;;;;;;;;;;;;5039882;28;1902;-62
2021/03/28 10:22:43;;;;;;;;;;;;;;;;;;5032535;28;1733;-63
2021/03/28 10:25:26;;;;;;;;;;;;;;;;;;5046852;28;1028;-62
2021/03/28 10:28:05;;;;;;;;;;;;;;;;;;5059060;28;1203;-61
2021/03/28 10:30:31;;;;;;;;;;;;;;;;;;5054731;28;1153;-61
2021/03/28 10:33:08;;;;;;;;;;;;;;;;;;5066828;28;1210;-62
2021/03/28 10:35:53;;;;;;;;;;;;;;;;;;5069452;28;851;-61
2021/03/28 10:38:22;;;;;;;;;;;;;;;;;;5069162;28;881;-62
2021/03/28 10:41:01;;;;;;;;;;;;;;;;;;5069683;28;1985;-62
2021/03/28 10:43:47;;;;;;;;;;;;;;;;;;5062062;28;1151;-61
2021/03/28 10:46:12;;;;;;;;;;;;;;;;;;5064741;28;1264;-64
2021/03/28 10:48:38;;;;;;;;;;;;;;;;;;5046968;28;1388;-61
2021/03/28 10:51:03;;;;;;;;;;;;;;;;;;5055455;28;1262;-61
2021/03/28 10:53:47;;;;;;;;;;;;;;;;;;5061739;28;1020;-62
2021/03/28 10:56:13;;;;;;;;;;;;;;;;;;5054240;28;1074;-62
2021/03/28 10:58:47;;;;;;;;;;;;;;;;;;5048595;28;1242;-62
2021/03/28 11:01:15;;;;;;;;;;;;;;;;;;5047885;28;1898;-61
2021/03/28 11:03:54;;;;;;;;;;;;;;;;;;5048731;28;846;-62
2021/03/28 11:06:38;;;;;;;;;;;;;;;;;;5048746;28;910;-62
2021/03/28 11:09:06;;;;;;;;;;;;;;;;;;5049170;28;831;-60
2021/03/28 11:11:35;;;;;;;;;;;;;;;;;;5048912;28;1270;-59
2021/03/28 11:14:12;;;;;;;;;;;;;;;;;;5064280;28;1068;-60
2021/03/28 11:16:44;;;;;;;;;;;;;;;;;;5052393;28;1067;-61
2021/03/28 11:19:28;;;;;;;;;;;;;;;;;;5065304;28;1147;-61
2021/03/28 11:22:07;;;;;;;;;;;;;;;;;;5028346;28;1890;-60
2021/03/28 11:24:51;;;;;;;;;;;;;;;;;;5035085;28;1238;-61
2021/03/28 11:27:25;;;;;;;;;;;;;;;;;;5060309;28;1148;-61
2021/03/28 11:29:54;;;;;;;;;;;;;;;;;;5063311;28;1352;-61
2021/03/28 11:32:19;;;;;;;;;;;;;;;;;;5048198;28;823;-61
2021/03/28 11:35:03;;;;;;;;;;;;;;;;;;5048768;28;1499;-60
2021/03/28 11:37:37;;;;;;;;;;;;;;;;;;5035725;28;930;-60
2021/03/28 11:40:32;;;;;;;;;;;;;;;;;;5034819;28;1981;-60
2021/03/28 11:43:04;;;;;;;;;;;;;;;;;;5037513;28;1312;-61
2021/03/28 11:45:32;;;;;;;;;;;;;;;;;;5027813;28;831;-60
2021/03/28 11:47:58;;;;;;;;;;;;;;;;;;5027450;28;847;-61
2021/03/28 11:50:23;;;;;;;;;;;;;;;;;;5027849;28;821;-61
2021/03/28 11:52:49;;;;;;;;;;;;;;;;;;5030906;28;1166;-61
2021/03/28 11:55:21;;;;;;;;;;;;;;;;;;5068610;28;863;-61
2021/03/28 11:58:05;;;;;;;;;;;;;;;;;;5068536;28;1253;-61
2021/03/28 12:00:41;;;;;;;;;;;;;;;;;;5054602;28;2058;-60
2021/03/28 12:03:19;;;;;;;;;;;;;;;;;;5055248;28;1155;-61
2021/03/28 12:05:51;;;;;;;;;;;;;;;;;;5052291;28;1200;-60
2021/03/28 12:08:17;;;;;;;;;;;;;;;;;;5048723;28;883;-61
2021/03/28 12:10:42;;;;;;;;;;;;;;;;;;5052739;28;1151;-61
2021/03/28 12:13:27;;;;;;;;;;;;;;;;;;5046512;28;925;-61
2021/03/28 12:15:52;;;;;;;;;;;;;;;;;;5051897;28;1238;-59
2021/03/28 12:18:21;;;;;;;;;;;;;;;;;;5050318;28;1035;-62
2021/03/28 12:21:06;;;;;;;;;;;;;;;;;;5051340;28;1889;-61
2021/03/28 12:23:34;;;;;;;;;;;;;;;;;;5046959;28;1267;-62
2021/03/28 12:26:06;;;;;;;;;;;;;;;;;;5036865;28;1248;-61
2021/03/28 12:28:49;;;;;;;;;;;;;;;;;;5032100;28;1198;-62
2021/03/28 12:31:27;;;;;;;;;;;;;;;;;;5031683;28;1279;-60
2021/03/28 12:34:08;;;;;;;;;;;;;;;;;;5032251;28;1458;-61
2021/03/28 12:36:54;;;;;;;;;;;;;;;;;;5030498;28;2006;-63
2021/03/28 12:39:26;;;;;;;;;;;;;;;;;;5035818;28;1398;-62
2021/03/28 12:42:05;;;;;;;;;;;;;;;;;;5038767;28;1898;-62
2021/03/28 12:44:42;;;;;;;;;;;;;;;;;;5055150;28;2163;-64
2021/03/28 12:47:25;;;;;;;;;;;;;;;;;;5038583;28;1422;-60
2021/03/28 12:50:00;;;;;;;;;;;;;;;;;;5036840;28;1462;-64
2021/03/28 12:52:28;;;;;;;;;;;;;;;;;;5032430;28;1544;-62
2021/03/28 12:54:55;;;;;;;;;;;;;;;;;;5034518;28;1481;-62
2021/03/28 12:57:26;;;;;;;;;;;;;;;;;;5032241;28;1403;-63
2021/03/28 12:59:57;;;;;;;;;;;;;;;;;;5031107;28;1985;-62
2021/03/28 13:02:23;;;;;;;;;;;;;;;;;;5033248;28;1399;-63
2021/03/28 13:05:11;;;;;;;;;;;;;;;;;;5036928;28;1269;-62
2021/03/28 13:07:41;;;;;;;;;;;;;;;;;;5036898;28;1368;-64
2021/03/28 13:10:14;;;;;;;;;;;;;;;;;;5035164;28;1300;-63
2021/03/28 13:12:39;;;;;;;;;;;;;;;;;;5038471;28;1312;-61
2021/03/28 13:15:22;;;;;;;;;;;;;;;;;;5038550;28;1457;-62
2021/03/28 13:18:00;;;;;;;;;;;;;;;;;;5040247;28;1324;-63
2021/03/28 13:20:35;;;;;;;;;;;;;;;;;;5036133;28;1977;-58
2021/03/28 13:23:24;;;;;;;;;;;;;;;;;;5038940;28;1355;-58
2021/03/28 13:26:15;;;;;;;;;;;;;;;;;;5029447;28;1607;-59
2021/03/28 13:28:52;;;;;;;;;;;;;;;;;;5033545;28;1237;-59
2021/03/28 13:31:24;;;;;;;;;;;;;;;;;;5044878;28;1288;-59
2021/03/28 13:33:51;;;;;;;;;;;;;;;;;;5040295;28;1237;-58
2021/03/28 13:36:32;;;;;;;;;;;;;;;;;;5034283;28;1308;-62
2021/03/28 13:39:09;;;;;;;;;;;;;;;;;;5040746;28;1248;-63
2021/03/28 13:41:36;;;;;;;;;;;;;;;;;;5046970;28;2038;-63
2021/03/28 13:44:21;;;;;;;;;;;;;;;;;;5050260;28;1174;-63
2021/03/28 13:46:48;;;;;;;;;;;;;;;;;;5059624;28;1753;-62
2021/03/28 13:49:23;;;;;;;;;;;;;;;;;;5050866;28;1325;-60
2021/03/28 13:52:05;;;;;;;;;;;;;;;;;;5054784;28;1156;-60
2021/03/28 13:54:31;;;;;;;;;;;;;;;;;;5055299;28;1537;-63
2021/03/28 13:56:58;;;;;;;;;;;;;;;;;;5054594;28;1146;-63
2021/03/28 13:59:28;;;;;;;;;;;;;;;;;;5061116;28;1143;-63
2021/03/28 14:01:56;;;;;;;;;;;;;;;;;;5059271;28;1902;-63
2021/03/28 14:04:25;;;;;;;;;;;;;;;;;;5051929;28;1190;-62
2021/03/28 14:07:02;;;;;;;;;;;;;;;;;;5059262;28;1269;-62
2021/03/28 14:09:31;;;;;;;;;;;;;;;;;;5055288;28;1244;-63
2021/03/28 14:12:01;;;;;;;;;;;;;;;;;;5053941;28;1359;-63
2021/03/28 14:14:35;;;;;;;;;;;;;;;;;;5052269;28;1156;-60
2021/03/28 14:17:21;;;;;;;;;;;;;;;;;;5046138;28;1199;-60
2021/03/28 14:19:47;;;;;;;;;;;;;;;;;;5052739;28;2299;-60
2021/03/28 14:22:20;;;;;;;;;;;;;;;;;;5032158;28;1497;-59
2021/03/28 14:24:51;;;;;;;;;;;;;;;;;;5053490;28;1252;-61
2021/03/28 14:27:26;;;;;;;;;;;;;;;;;;5053536;28;1222;-63
2021/03/28 14:29:59;;;;;;;;;;;;;;;;;;5055220;28;1193;-61
2021/03/28 14:32:37;;;;;;;;;;;;;;;;;;5055698;28;1160;-63
2021/03/28 14:35:21;;;;;;;;;;;;;;;;;;5034250;28;1743;-62
2021/03/28 14:38:05;;;;;;;;;;;;;;;;;;5040270;28;1218;-60
2021/03/28 14:40:31;;;;;;;;;;;;;;;;;;5042475;28;1985;-60
2021/03/28 14:42:56;;;;;;;;;;;;;;;;;;5046155;28;1310;-62
2021/03/28 14:45:40;;;;;;;;;;;;;;;;;;5040574;28;1570;-60
2021/03/28 14:48:24;;;;;;;;;;;;;;;;;;5035612;28;1161;-62
2021/03/28 14:50:55;;;;;;;;;;;;;;;;;;5035857;28;1561;-63
2021/03/28 14:53:44;;;;;;;;;;;;;;;;;;5032907;28;1162;-61
2021/03/28 14:56:25;;;;;;;;;;;;;;;;;;5047744;28;824;-62
2021/03/28 14:59:01;;;;;;;;;;;;;;;;;;5048185;28;827;-61
2021/03/28 15:01:56;;;;;;;;;;;;;;;;;;5041811;28;1918;-60
2021/03/28 15:04:21;;;;;;;;;;;;;;;;;;5026779;28;1459;-61
2021/03/28 15:06:52;;;;;;;;;;;;;;;;;;5043937;28;1289;-61
2021/03/28 15:09:39;;;;;;;;;;;;;;;;;;5040232;28;1752;-62
2021/03/28 15:12:20;;;;;;;;;;;;;;;;;;5041470;28;1309;-64
2021/03/28 15:14:52;;;;;;;;;;;;;;;;;;5055805;28;1125;-60
2021/03/28 15:17:38;;;;;;;;;;;;;;;;;;5040590;28;1393;-63
2021/03/28 15:20:22;;;;;;;;;;;;;;;;;;5038599;28;1918;-61
2021/03/28 15:22:50;;;;;;;;;;;;;;;;;;5036336;28;1264;-63
2021/03/28 15:25:18;;;;;;;;;;;;;;;;;;5036961;28;1320;-62
2021/03/28 15:27:48;;;;;;;;;;;;;;;;;;5047235;28;1351;-64
2021/03/28 15:30:28;;;;;;;;;;;;;;;;;;5037512;28;1160;-63
2021/03/28 15:33:10;;;;;;;;;;;;;;;;;;5036141;28;1226;-63
2021/03/28 15:36:01;;;;;;;;;;;;;;;;;;5040640;28;1344;-63
2021/03/28 15:38:59;;;;;;;;;;;;;;;;;;5043614;28;1237;-62
2021/03/28 15:41:44;;;;;;;;;;;;;;;;;;5036502;28;1961;-62
2021/03/28 15:44:28;;;;;;;;;;;;;;;;;;5049392;28;1292;-64
2021/03/28 15:47:23;;;;;;;;;;;;;;;;;;5053886;28;1204;-64
2021/03/28 15:49:49;;;;;;;;;;;;;;;;;;5045600;28;1253;-64
2021/03/28 15:52:17;;;;;;;;;;;;;;;;;;5056293;28;1202;-64
2021/03/28 15:54:51;;;;;;;;;;;;;;;;;;5058499;28;1185;-63
2021/03/28 15:57:43;;;;;;;;;;;;;;;;;;5041649;28;1218;-64
2021/03/28 16:00:27;;;;;;;;;;;;;;;;;;5027355;28;1898;-63
2021/03/28 16:02:56;;;;;;;;;;;;;;;;;;5027095;28;899;-65
2021/03/28 16:05:36;;;;;;;;;;;;;;;;;;5027662;28;807;-67
2021/03/28 16:08:24;;;;;;;;;;;;;;;;;;5027706;28;906;-62
2021/03/28 16:11:00;;;;;;;;;;;;;;;;;;5027863;28;2076;-62
2021/03/28 16:13:28;;;;;;;;;;;;;;;;;;5027258;28;855;-66
2021/03/28 16:16:11;;;;;;;;;;;;;;;;;;5027704;28;827;-61
2021/03/28 16:18:58;;;;;;;;;;;;;;;;;;5063362;28;1162;-63
2021/03/28 16:21:42;;;;;;;;;;;;;;;;;;5067465;28;1971;-61
2021/03/28 16:24:16;;;;;;;;;;;;;;;;;;5048929;28;1100;-67
2021/03/28 16:26:48;;;;;;;;;;;;;;;;;;5047519;28;1403;-62
2021/03/28 16:29:31;;;;;;;;;;;;;;;;;;5047926;28;844;-61
2021/03/28 16:32:15;;;;;;;;;;;;;;;;;;5046581;28;946;-62
2021/03/28 16:34:43;;;;;;;;;;;;;;;;;;5039808;28;1143;-63
2021/03/28 16:37:08;;;;;;;;;;;;;;;;;;5035094;28;1229;-61
2021/03/28 16:39:35;;;;;;;;;;;;;;;;;;5055124;28;1227;-63
2021/03/28 16:42:00;;;;;;;;;;;;;;;;;;5047055;28;1977;-62
2021/03/28 16:44:34;;;;;;;;;;;;;;;;;;5046605;28;842;-62
2021/03/28 16:47:05;;;;;;;;;;;;;;;;;;5046536;28;835;-61
2021/03/28 16:49:42;;;;;;;;;;;;;;;;;;5046882;28;866;-63
2021/03/28 16:52:20;;;;;;;;;;;;;;;;;;5047437;28;863;-64
2021/03/28 16:54:46;;;;;;;;;;;;;;;;;;5063048;28;1351;-64
2021/03/28 16:57:14;;;;;;;;;;;;;;;;;;5046645;28;1269;-64
2021/03/28 16:59:46;;;;;;;;;;;;;;;;;;5046947;28;824;-64
2021/03/28 17:02:30;;;;;;;;;;;;;;;;;;5046553;28;1973;-63
2021/03/28 17:05:20;;;;;;;;;;;;;;;;;;5046609;28;815;-62
2021/03/28 17:07:48;;;;;;;;;;;;;;;;;;5046983;28;1167;-61
2021/03/28 17:10:31;;;;;;;;;;;;;;;;;;5047373;28;851;-61
2021/03/28 17:12:57;;;;;;;;;;;;;;;;;;5045592;28;1187;-62
2021/03/28 17:15:34;;;;;;;;;;;;;;;;;;5056525;28;1128;-62
2021/03/28 17:18:11;;;;;;;;;;;;;;;;;;5038236;28;1445;-63
2021/03/28 17:20:49;;;;;;;;;;;;;;;;;;5033344;28;1901;-62
2021/03/28 17:23:33;;;;;;;;;;;;;;;;;;5034158;28;1213;-62
2021/03/28 17:26:17;;;;;;;;;;;;;;;;;;5033822;28;1221;-64
2021/03/28 17:28:44;;;;;;;;;;;;;;;;;;5032873;28;1137;-62
2021/03/28 17:31:11;;;;;;;;;;;;;;;;;;5035071;28;1324;-62
2021/03/28 17:33:42;;;;;;;;;;;;;;;;;;5040103;28;1213;-62
2021/03/28 17:36:14;;;;;;;;;;;;;;;;;;5046676;28;823;-62
2021/03/28 17:38:52;;;;;;;;;;;;;;;;;;5045815;28;1110;-62
2021/03/28 17:41:36;;;;;;;;;;;;;;;;;;5064180;28;1893;-62
2021/03/28 17:44:01;;;;;;;;;;;;;;;;;;5065428;28;820;-62
2021/03/28 17:46:44;;;;;;;;;;;;;;;;;;5066301;28;835;-62
2021/03/28 17:49:28;;;;;;;;;;;;;;;;;;5067077;28;819;-61
2021/03/28 17:51:54;;;;;;;;;;;;;;;;;;5066649;28;902;-62
2021/03/28 17:54:22;;;;;;;;;;;;;;;;;;5052334;28;1145;-62
2021/03/28 17:56:48;;;;;;;;;;;;;;;;;;5034047;28;1222;-62
2021/03/28 17:59:13;;;;;;;;;;;;;;;;;;5069279;28;1147;-61
2021/03/28 18:01:43;;;;;;;;;;;;;;;;;;5069901;28;1969;-62
2021/03/28 18:04:17;;;;;;;;;;;;;;;;;;5066455;28;1167;-61
2021/03/28 18:06:42;;;;;;;;;;;;;;;;;;5064263;28;1163;-63
2021/03/28 18:09:20;;;;;;;;;;;;;;;;;;5056977;28;1651;-63
2021/03/28 18:11:52;;;;;;;;;;;;;;;;;;5058865;28;1162;-62
2021/03/28 18:14:35;;;;;;;;;;;;;;;;;;5063099;28;1165;-62